sensor_id;sensor_type;location;lat;lon;timestamp;temperature;humidity
43671;DHT22;29267;50.906;7.248;2022-12-24T00:02:00;10.50;99.90
43671;DHT22;29267;50.906;7.248;2022-12-24T00:04:26;10.40;99.90
43671;DHT22;29267;50.906;7.248;2022-12-24T00:06:52;10.40;99.90
43671;DHT22;29267;50.906;7.248;2022-12-24T00:09:17;10.40;99.90
43671;DHT22;29267;50.906;7.248;2022-12-24T00:11:43;10.30;99.90
43671;DHT22;29267;50.906;7.248;2022-12-24T00:14:08;10.30;99.90
43671;DHT22;29267;50.906;7.248;2022-12-24T00:16:34;10.30;99.90
43671;DHT22;29267;50.906;7.248;2022-12-24T00:19:00;10.30;99.90
43671;DHT22;29267;50.906;7.248;2022-12-24T00:21:25;10.40;99.90
43671;DHT22;29267;50.906;7.248;2022-12-24T00:23:51;10.30;99.90
43671;DHT22;29267;50.906;7.248;2022-12-24T00:26:17;10.30;99.90
43671;DHT22;29267;50.906;7.248;2022-12-24T00:28:42;10.30;99.90
43671;DHT22;29267;50.906;7.248;2022-12-24T00:31:14;10.20;99.90
43671;DHT22;29267;50.906;7.248;2022-12-24T00:33:40;10.10;99.90
43671;DHT22;29267;50.906;7.248;2022-12-24T00:36:06;10.00;99.90
43671;DHT22;29267;50.906;7.248;2022-12-24T00:38:32;9.90;99.90
43671;DHT22;29267;50.906;7.248;2022-12-24T00:41:03;9.90;99.90
43671;DHT22;29267;50.906;7.248;2022-12-24T00:43:30;9.90;99.90
43671;DHT22;29267;50.906;7.248;2022-12-24T00:45:56;9.80;99.90
43671;DHT22;29267;50.906;7.248;2022-12-24T00:48:22;9.80;99.90
43671;DHT22;29267;50.906;7.248;2022-12-24T00:50:49;9.80;99.90
43671;DHT22;29267;50.906;7.248;2022-12-24T00:53:15;9.70;99.90
43671;DHT22;29267;50.906;7.248;2022-12-24T00:55:41;9.80;99.90
43671;DHT22;29267;50.906;7.248;2022-12-24T00:58:07;9.80;99.90
43671;DHT22;29267;50.906;7.248;2022-12-24T01:00:32;9.90;99.90
43671;DHT22;29267;50.906;7.248;2022-12-24T01:02:58;9.90;99.90
43671;DHT22;29267;50.906;7.248;2022-12-24T01:05:23;9.90;99.90
43671;DHT22;29267;50.906;7.248;2022-12-24T01:07:49;9.90;99.90
43671;DHT22;29267;50.906;7.248;2022-12-24T01:10:19;9.80;99.90
43671;DHT22;29267;50.906;7.248;2022-12-24T01:12:45;9.80;99.90
43671;DHT22;29267;50.906;7.248;2022-12-24T01:15:13;9.80;99.90
43671;DHT22;29267;50.906;7.248;2022-12-24T01:17:39;9.80;99.90
43671;DHT22;29267;50.906;7.248;2022-12-24T01:20:07;9.80;99.90
43671;DHT22;29267;50.906;7.248;2022-12-24T01:22:33;9.70;99.90
43671;DHT22;29267;50.906;7.248;2022-12-24T01:24:59;9.80;99.90
43671;DHT22;29267;50.906;7.248;2022-12-24T01:27:24;9.80;99.90
43671;DHT22;29267;50.906;7.248;2022-12-24T01:29:50;9.90;99.90
43671;DHT22;29267;50.906;7.248;2022-12-24T01:32:15;9.80;99.90
43671;DHT22;29267;50.906;7.248;2022-12-24T01:34:41;9.80;99.90
43671;DHT22;29267;50.906;7.248;2022-12-24T01:37:07;9.80;99.90
43671;DHT22;29267;50.906;7.248;2022-12-24T01:39:32;9.80;99.90
43671;DHT22;29267;50.906;7.248;2022-12-24T01:41:58;9.80;99.90
43671;DHT22;29267;50.906;7.248;2022-12-24T01:44:47;9.70;99.90
43671;DHT22;29267;50.906;7.248;2022-12-24T01:47:25;9.80;99.90
43671;DHT22;29267;50.906;7.248;2022-12-24T01:49:59;9.80;99.90
43671;DHT22;29267;50.906;7.248;2022-12-24T01:52:31;9.80;99.90
43671;DHT22;29267;50.906;7.248;2022-12-24T01:55:04;9.90;99.90
43671;DHT22;29267;50.906;7.248;2022-12-24T01:57:40;9.90;99.90
43671;DHT22;29267;50.906;7.248;2022-12-24T02:00:11;9.90;99.90
43671;DHT22;29267;50.906;7.248;2022-12-24T02:02:45;9.90;99.90
43671;DHT22;29267;50.906;7.248;2022-12-24T02:05:28;10.00;99.90
43671;DHT22;29267;50.906;7.248;2022-12-24T02:07:55;10.00;99.90
43671;DHT22;29267;50.906;7.248;2022-12-24T02:10:21;10.00;99.90
43671;DHT22;29267;50.906;7.248;2022-12-24T02:12:48;10.00;99.90
43671;DHT22;29267;50.906;7.248;2022-12-24T02:15:16;10.00;99.90
43671;DHT22;29267;50.906;7.248;2022-12-24T02:18:32;9.90;99.90
43671;DHT22;29267;50.906;7.248;2022-12-24T02:32:23;9.90;99.90
43671;DHT22;29267;50.906;7.248;2022-12-24T02:34:57;9.90;99.90
43671;DHT22;29267;50.906;7.248;2022-12-24T02:37:31;9.90;99.90
43671;DHT22;29267;50.906;7.248;2022-12-24T02:42:38;9.80;99.90
43671;DHT22;29267;50.906;7.248;2022-12-24T02:45:07;9.80;99.90
43671;DHT22;29267;50.906;7.248;2022-12-24T02:47:34;9.70;99.90
43671;DHT22;29267;50.906;7.248;2022-12-24T02:50:02;9.70;99.90
43671;DHT22;29267;50.906;7.248;2022-12-24T02:52:37;9.80;99.90
43671;DHT22;29267;50.906;7.248;2022-12-24T03:03:37;9.80;99.90
43671;DHT22;29267;50.906;7.248;2022-12-24T03:06:16;9.80;99.90
43671;DHT22;29267;50.906;7.248;2022-12-24T03:11:19;9.90;99.90
43671;DHT22;29267;50.906;7.248;2022-12-24T03:13:46;9.90;99.90
43671;DHT22;29267;50.906;7.248;2022-12-24T03:16:16;9.90;99.90
43671;DHT22;29267;50.906;7.248;2022-12-24T03:18:45;10.00;99.90
43671;DHT22;29267;50.906;7.248;2022-12-24T03:21:31;10.00;99.90
43671;DHT22;29267;50.906;7.248;2022-12-24T03:23:57;9.90;99.90
43671;DHT22;29267;50.906;7.248;2022-12-24T03:26:24;9.90;99.90
43671;DHT22;29267;50.906;7.248;2022-12-24T03:28:51;9.90;99.90
43671;DHT22;29267;50.906;7.248;2022-12-24T03:31:17;9.90;99.90
43671;DHT22;29267;50.906;7.248;2022-12-24T03:33:43;10.00;99.90
43671;DHT22;29267;50.906;7.248;2022-12-24T03:36:10;9.90;99.90
43671;DHT22;29267;50.906;7.248;2022-12-24T03:38:36;10.00;99.90
43671;DHT22;29267;50.906;7.248;2022-12-24T03:41:02;9.90;99.90
43671;DHT22;29267;50.906;7.248;2022-12-24T03:43:27;10.00;99.90
43671;DHT22;29267;50.906;7.248;2022-12-24T03:45:53;10.00;99.90
43671;DHT22;29267;50.906;7.248;2022-12-24T03:48:18;9.90;99.90
43671;DHT22;29267;50.906;7.248;2022-12-24T03:50:44;10.00;99.90
43671;DHT22;29267;50.906;7.248;2022-12-24T03:53:10;9.90;99.90
43671;DHT22;29267;50.906;7.248;2022-12-24T03:55:37;9.90;99.90
43671;DHT22;29267;50.906;7.248;2022-12-24T03:58:03;9.80;99.90
43671;DHT22;29267;50.906;7.248;2022-12-24T04:00:28;9.80;99.90
43671;DHT22;29267;50.906;7.248;2022-12-24T04:02:54;9.70;99.90
43671;DHT22;29267;50.906;7.248;2022-12-24T04:05:20;9.70;99.90
43671;DHT22;29267;50.906;7.248;2022-12-24T04:07:46;9.70;99.90
43671;DHT22;29267;50.906;7.248;2022-12-24T04:10:13;9.60;99.90
43671;DHT22;29267;50.906;7.248;2022-12-24T04:12:39;9.50;99.90
43671;DHT22;29267;50.906;7.248;2022-12-24T04:15:05;9.50;99.90
43671;DHT22;29267;50.906;7.248;2022-12-24T04:17:32;9.50;99.90
43671;DHT22;29267;50.906;7.248;2022-12-24T04:19:57;9.50;99.90
43671;DHT22;29267;50.906;7.248;2022-12-24T04:22:23;9.40;99.90
43671;DHT22;29267;50.906;7.248;2022-12-24T04:24:48;9.40;99.90
43671;DHT22;29267;50.906;7.248;2022-12-24T04:27:15;9.30;99.90
43671;DHT22;29267;50.906;7.248;2022-12-24T04:29:40;9.30;99.90
43671;DHT22;29267;50.906;7.248;2022-12-24T04:32:06;9.20;99.90
43671;DHT22;29267;50.906;7.248;2022-12-24T04:34:32;9.20;99.90
43671;DHT22;29267;50.906;7.248;2022-12-24T04:36:57;9.20;99.90
43671;DHT22;29267;50.906;7.248;2022-12-24T04:39:23;9.10;99.90
43671;DHT22;29267;50.906;7.248;2022-12-24T04:41:48;9.10;99.90
43671;DHT22;29267;50.906;7.248;2022-12-24T04:44:14;9.10;99.90
43671;DHT22;29267;50.906;7.248;2022-12-24T04:46:40;9.10;99.90
43671;DHT22;29267;50.906;7.248;2022-12-24T04:49:06;9.10;99.90
43671;DHT22;29267;50.906;7.248;2022-12-24T04:51:32;9.00;99.90
43671;DHT22;29267;50.906;7.248;2022-12-24T04:53:58;9.00;99.90
43671;DHT22;29267;50.906;7.248;2022-12-24T04:56:26;9.00;99.90
43671;DHT22;29267;50.906;7.248;2022-12-24T04:58:52;9.00;99.90
43671;DHT22;29267;50.906;7.248;2022-12-24T05:01:21;9.00;99.90
43671;DHT22;29267;50.906;7.248;2022-12-24T05:03:47;8.90;99.90
43671;DHT22;29267;50.906;7.248;2022-12-24T05:06:15;8.90;99.90
43671;DHT22;29267;50.906;7.248;2022-12-24T05:08:41;8.90;99.90
43671;DHT22;29267;50.906;7.248;2022-12-24T05:11:08;8.90;99.90
43671;DHT22;29267;50.906;7.248;2022-12-24T05:13:34;8.90;99.90
43671;DHT22;29267;50.906;7.248;2022-12-24T05:16:00;8.90;99.90
43671;DHT22;29267;50.906;7.248;2022-12-24T05:18:26;8.90;99.90
43671;DHT22;29267;50.906;7.248;2022-12-24T05:20:51;8.90;99.90
43671;DHT22;29267;50.906;7.248;2022-12-24T05:23:22;8.80;99.90
43671;DHT22;29267;50.906;7.248;2022-12-24T05:26:22;8.80;99.90
43671;DHT22;29267;50.906;7.248;2022-12-24T05:28:53;8.80;99.90
43671;DHT22;29267;50.906;7.248;2022-12-24T05:31:19;8.80;99.90
43671;DHT22;29267;50.906;7.248;2022-12-24T05:33:45;8.80;99.90
43671;DHT22;29267;50.906;7.248;2022-12-24T05:36:11;8.80;99.90
43671;DHT22;29267;50.906;7.248;2022-12-24T05:38:37;8.80;99.90
43671;DHT22;29267;50.906;7.248;2022-12-24T05:41:02;8.80;99.90
43671;DHT22;29267;50.906;7.248;2022-12-24T05:43:28;8.80;99.90
43671;DHT22;29267;50.906;7.248;2022-12-24T05:45:59;8.80;99.90
43671;DHT22;29267;50.906;7.248;2022-12-24T05:48:25;8.80;99.90
43671;DHT22;29267;50.906;7.248;2022-12-24T05:50:50;8.80;99.90
43671;DHT22;29267;50.906;7.248;2022-12-24T05:53:16;8.80;99.90
43671;DHT22;29267;50.906;7.248;2022-12-24T05:55:41;8.80;99.90
43671;DHT22;29267;50.906;7.248;2022-12-24T05:58:07;8.80;99.90
43671;DHT22;29267;50.906;7.248;2022-12-24T06:00:32;8.80;99.90
43671;DHT22;29267;50.906;7.248;2022-12-24T06:02:58;8.80;99.90
43671;DHT22;29267;50.906;7.248;2022-12-24T06:05:23;8.80;99.90
43671;DHT22;29267;50.906;7.248;2022-12-24T06:07:49;8.70;99.90
43671;DHT22;29267;50.906;7.248;2022-12-24T06:10:15;8.70;99.90
43671;DHT22;29267;50.906;7.248;2022-12-24T06:12:41;8.60;99.90
43671;DHT22;29267;50.906;7.248;2022-12-24T06:15:07;8.60;99.90
43671;DHT22;29267;50.906;7.248;2022-12-24T06:17:32;8.50;99.90
43671;DHT22;29267;50.906;7.248;2022-12-24T06:19:58;8.50;99.90
43671;DHT22;29267;50.906;7.248;2022-12-24T06:22:24;8.60;99.90
43671;DHT22;29267;50.906;7.248;2022-12-24T06:24:49;8.60;99.90
43671;DHT22;29267;50.906;7.248;2022-12-24T06:27:15;8.60;99.90
43671;DHT22;29267;50.906;7.248;2022-12-24T06:29:40;8.60;99.90
43671;DHT22;29267;50.906;7.248;2022-12-24T06:32:06;8.60;99.90
43671;DHT22;29267;50.906;7.248;2022-12-24T06:34:31;8.60;99.90
43671;DHT22;29267;50.906;7.248;2022-12-24T06:36:57;8.60;99.90
43671;DHT22;29267;50.906;7.248;2022-12-24T06:39:22;8.50;99.90
43671;DHT22;29267;50.906;7.248;2022-12-24T06:41:48;8.50;99.90
43671;DHT22;29267;50.906;7.248;2022-12-24T06:44:13;8.50;99.90
43671;DHT22;29267;50.906;7.248;2022-12-24T06:46:39;8.50;99.90
43671;DHT22;29267;50.906;7.248;2022-12-24T06:49:04;8.50;99.90
43671;DHT22;29267;50.906;7.248;2022-12-24T06:51:30;8.50;99.90
43671;DHT22;29267;50.906;7.248;2022-12-24T06:53:56;8.50;99.90
43671;DHT22;29267;50.906;7.248;2022-12-24T06:56:21;8.50;99.90
43671;DHT22;29267;50.906;7.248;2022-12-24T06:58:47;8.50;99.90
43671;DHT22;29267;50.906;7.248;2022-12-24T07:01:15;8.50;99.90
43671;DHT22;29267;50.906;7.248;2022-12-24T07:03:42;8.50;99.90
43671;DHT22;29267;50.906;7.248;2022-12-24T07:06:24;8.60;99.90
43671;DHT22;29267;50.906;7.248;2022-12-24T07:08:50;8.50;99.90
43671;DHT22;29267;50.906;7.248;2022-12-24T07:11:16;8.50;99.90
43671;DHT22;29267;50.906;7.248;2022-12-24T07:13:42;8.50;99.90
43671;DHT22;29267;50.906;7.248;2022-12-24T07:16:07;8.50;99.90
43671;DHT22;29267;50.906;7.248;2022-12-24T07:18:33;8.40;99.90
43671;DHT22;29267;50.906;7.248;2022-12-24T07:20:59;8.40;99.90
43671;DHT22;29267;50.906;7.248;2022-12-24T07:23:25;8.30;99.90
43671;DHT22;29267;50.906;7.248;2022-12-24T07:25:51;8.20;99.90
43671;DHT22;29267;50.906;7.248;2022-12-24T07:28:17;8.30;99.90
43671;DHT22;29267;50.906;7.248;2022-12-24T07:30:42;8.20;99.90
43671;DHT22;29267;50.906;7.248;2022-12-24T07:33:08;8.20;99.90
43671;DHT22;29267;50.906;7.248;2022-12-24T07:35:34;8.30;99.90
43671;DHT22;29267;50.906;7.248;2022-12-24T07:38:00;8.30;99.90
43671;DHT22;29267;50.906;7.248;2022-12-24T07:40:26;8.30;99.90
43671;DHT22;29267;50.906;7.248;2022-12-24T07:42:52;8.30;99.90
43671;DHT22;29267;50.906;7.248;2022-12-24T07:45:17;8.30;99.90
43671;DHT22;29267;50.906;7.248;2022-12-24T07:47:43;8.30;99.90
43671;DHT22;29267;50.906;7.248;2022-12-24T07:50:08;8.40;99.90
43671;DHT22;29267;50.906;7.248;2022-12-24T07:52:34;8.50;99.90
43671;DHT22;29267;50.906;7.248;2022-12-24T07:55:00;8.50;99.90
43671;DHT22;29267;50.906;7.248;2022-12-24T07:57:26;8.50;99.90
43671;DHT22;29267;50.906;7.248;2022-12-24T07:59:51;8.60;99.90
43671;DHT22;29267;50.906;7.248;2022-12-24T08:02:17;8.60;99.90
43671;DHT22;29267;50.906;7.248;2022-12-24T08:04:42;8.60;99.90
43671;DHT22;29267;50.906;7.248;2022-12-24T08:07:08;8.70;99.90
43671;DHT22;29267;50.906;7.248;2022-12-24T08:09:34;8.70;99.90
43671;DHT22;29267;50.906;7.248;2022-12-24T08:12:01;8.80;99.90
43671;DHT22;29267;50.906;7.248;2022-12-24T08:14:28;8.80;99.90
43671;DHT22;29267;50.906;7.248;2022-12-24T08:16:53;8.90;99.90
43671;DHT22;29267;50.906;7.248;2022-12-24T08:19:19;9.00;99.90
43671;DHT22;29267;50.906;7.248;2022-12-24T08:21:45;9.00;99.90
43671;DHT22;29267;50.906;7.248;2022-12-24T08:24:10;9.00;99.90
43671;DHT22;29267;50.906;7.248;2022-12-24T08:26:36;9.10;99.90
43671;DHT22;29267;50.906;7.248;2022-12-24T08:29:03;9.10;99.90
43671;DHT22;29267;50.906;7.248;2022-12-24T08:31:29;9.10;99.90
43671;DHT22;29267;50.906;7.248;2022-12-24T08:33:54;9.10;99.90
43671;DHT22;29267;50.906;7.248;2022-12-24T08:36:20;9.10;99.90
43671;DHT22;29267;50.906;7.248;2022-12-24T08:38:46;9.10;99.90
43671;DHT22;29267;50.906;7.248;2022-12-24T08:41:11;9.20;99.90
43671;DHT22;29267;50.906;7.248;2022-12-24T08:43:37;9.20;99.90
43671;DHT22;29267;50.906;7.248;2022-12-24T08:46:04;9.30;99.90
43671;DHT22;29267;50.906;7.248;2022-12-24T08:48:31;9.30;99.90
43671;DHT22;29267;50.906;7.248;2022-12-24T08:50:57;9.30;99.90
43671;DHT22;29267;50.906;7.248;2022-12-24T08:53:23;9.40;99.90
43671;DHT22;29267;50.906;7.248;2022-12-24T08:55:48;9.40;99.90
43671;DHT22;29267;50.906;7.248;2022-12-24T08:58:14;9.50;99.90
43671;DHT22;29267;50.906;7.248;2022-12-24T09:00:40;9.50;99.90
43671;DHT22;29267;50.906;7.248;2022-12-24T09:03:05;9.50;99.90
43671;DHT22;29267;50.906;7.248;2022-12-24T09:05:31;9.60;99.90
43671;DHT22;29267;50.906;7.248;2022-12-24T09:07:56;9.60;99.90
43671;DHT22;29267;50.906;7.248;2022-12-24T09:10:22;9.60;99.90
43671;DHT22;29267;50.906;7.248;2022-12-24T09:12:48;9.60;99.90
43671;DHT22;29267;50.906;7.248;2022-12-24T09:15:14;9.60;99.90
43671;DHT22;29267;50.906;7.248;2022-12-24T09:17:40;9.70;99.90
43671;DHT22;29267;50.906;7.248;2022-12-24T09:20:06;9.70;99.90
43671;DHT22;29267;50.906;7.248;2022-12-24T09:22:36;9.70;99.90
43671;DHT22;29267;50.906;7.248;2022-12-24T09:25:02;9.80;99.90
43671;DHT22;29267;50.906;7.248;2022-12-24T09:27:30;9.80;99.90
43671;DHT22;29267;50.906;7.248;2022-12-24T09:29:55;9.80;99.90
43671;DHT22;29267;50.906;7.248;2022-12-24T09:32:21;9.80;99.90
43671;DHT22;29267;50.906;7.248;2022-12-24T09:34:47;9.90;99.90
43671;DHT22;29267;50.906;7.248;2022-12-24T09:37:12;9.90;99.90
43671;DHT22;29267;50.906;7.248;2022-12-24T09:39:38;9.90;99.90
43671;DHT22;29267;50.906;7.248;2022-12-24T09:42:19;9.90;99.90
43671;DHT22;29267;50.906;7.248;2022-12-24T09:47:43;9.90;99.90
43671;DHT22;29267;50.906;7.248;2022-12-24T09:50:48;9.90;99.90
43671;DHT22;29267;50.906;7.248;2022-12-24T09:53:21;9.90;99.90
43671;DHT22;29267;50.906;7.248;2022-12-24T09:55:51;9.90;99.90
43671;DHT22;29267;50.906;7.248;2022-12-24T09:58:24;9.90;99.90
43671;DHT22;29267;50.906;7.248;2022-12-24T10:00:51;10.00;99.90
43671;DHT22;29267;50.906;7.248;2022-12-24T10:03:17;10.00;99.90
43671;DHT22;29267;50.906;7.248;2022-12-24T10:16:59;10.10;99.90
43671;DHT22;29267;50.906;7.248;2022-12-24T10:19:45;10.10;99.90
43671;DHT22;29267;50.906;7.248;2022-12-24T10:22:21;10.10;99.90
43671;DHT22;29267;50.906;7.248;2022-12-24T10:25:20;10.10;99.90
43671;DHT22;29267;50.906;7.248;2022-12-24T10:27:48;10.10;99.90
43671;DHT22;29267;50.906;7.248;2022-12-24T10:30:18;10.10;99.90
43671;DHT22;29267;50.906;7.248;2022-12-24T10:32:46;10.10;99.90
43671;DHT22;29267;50.906;7.248;2022-12-24T10:37:42;10.10;99.90
43671;DHT22;29267;50.906;7.248;2022-12-24T10:42:49;10.20;99.90
43671;DHT22;29267;50.906;7.248;2022-12-24T10:45:16;10.20;99.90
43671;DHT22;29267;50.906;7.248;2022-12-24T10:47:45;10.30;99.90
43671;DHT22;29267;50.906;7.248;2022-12-24T10:50:20;10.30;99.90
43671;DHT22;29267;50.906;7.248;2022-12-24T10:52:47;10.30;99.90
43671;DHT22;29267;50.906;7.248;2022-12-24T10:57:59;10.40;99.90
43671;DHT22;29267;50.906;7.248;2022-12-24T11:00:25;10.40;99.90
43671;DHT22;29267;50.906;7.248;2022-12-24T11:05:42;10.40;99.90
43671;DHT22;29267;50.906;7.248;2022-12-24T11:08:16;10.50;99.90
43671;DHT22;29267;50.906;7.248;2022-12-24T11:10:53;10.50;99.90
43671;DHT22;29267;50.906;7.248;2022-12-24T11:16:33;10.60;99.90
43671;DHT22;29267;50.906;7.248;2022-12-24T11:19:05;10.60;99.90
43671;DHT22;29267;50.906;7.248;2022-12-24T11:21:40;10.60;99.90
43671;DHT22;29267;50.906;7.248;2022-12-24T11:24:27;10.80;99.90
43671;DHT22;29267;50.906;7.248;2022-12-24T11:26:53;10.90;99.90
43671;DHT22;29267;50.906;7.248;2022-12-24T11:29:22;11.00;99.90
43671;DHT22;29267;50.906;7.248;2022-12-24T11:31:49;11.00;99.90
43671;DHT22;29267;50.906;7.248;2022-12-24T11:34:24;11.00;99.90
43671;DHT22;29267;50.906;7.248;2022-12-24T11:36:50;11.00;99.90
43671;DHT22;29267;50.906;7.248;2022-12-24T11:39:19;11.10;99.90
43671;DHT22;29267;50.906;7.248;2022-12-24T11:41:46;11.10;99.90
43671;DHT22;29267;50.906;7.248;2022-12-24T11:44:11;11.10;99.90
43671;DHT22;29267;50.906;7.248;2022-12-24T11:46:42;11.10;99.90
43671;DHT22;29267;50.906;7.248;2022-12-24T11:51:37;11.20;99.90
43671;DHT22;29267;50.906;7.248;2022-12-24T11:54:17;11.40;99.90
43671;DHT22;29267;50.906;7.248;2022-12-24T11:56:50;11.60;99.90
43671;DHT22;29267;50.906;7.248;2022-12-24T11:59:27;11.80;99.90
43671;DHT22;29267;50.906;7.248;2022-12-24T12:02:14;11.80;99.90
43671;DHT22;29267;50.906;7.248;2022-12-24T12:04:43;11.90;99.90
43671;DHT22;29267;50.906;7.248;2022-12-24T12:07:14;11.90;99.90
43671;DHT22;29267;50.906;7.248;2022-12-24T12:12:42;11.60;99.90
43671;DHT22;29267;50.906;7.248;2022-12-24T12:15:16;11.40;99.90
43671;DHT22;29267;50.906;7.248;2022-12-24T12:23:12;11.10;99.90
43671;DHT22;29267;50.906;7.248;2022-12-24T12:25:53;11.10;99.90
43671;DHT22;29267;50.906;7.248;2022-12-24T12:31:05;11.20;99.90
43671;DHT22;29267;50.906;7.248;2022-12-24T12:33:41;11.20;99.90
43671;DHT22;29267;50.906;7.248;2022-12-24T12:36:09;11.30;99.90
43671;DHT22;29267;50.906;7.248;2022-12-24T12:38:36;11.20;99.90
43671;DHT22;29267;50.906;7.248;2022-12-24T12:49:42;11.40;99.90
43671;DHT22;29267;50.906;7.248;2022-12-24T12:57:31;11.40;99.90
43671;DHT22;29267;50.906;7.248;2022-12-24T13:00:04;11.50;99.90
43671;DHT22;29267;50.906;7.248;2022-12-24T13:02:44;11.50;99.90
43671;DHT22;29267;50.906;7.248;2022-12-24T13:05:39;11.50;99.90
43671;DHT22;29267;50.906;7.248;2022-12-24T13:10:48;11.60;99.90
43671;DHT22;29267;50.906;7.248;2022-12-24T13:20:57;11.60;99.90
43671;DHT22;29267;50.906;7.248;2022-12-24T13:23:25;11.50;99.90
43671;DHT22;29267;50.906;7.248;2022-12-24T13:25:53;11.50;99.90
43671;DHT22;29267;50.906;7.248;2022-12-24T13:30:45;11.40;99.90
43671;DHT22;29267;50.906;7.248;2022-12-24T13:33:13;11.30;99.90
43671;DHT22;29267;50.906;7.248;2022-12-24T13:36:17;11.40;99.90
43671;DHT22;29267;50.906;7.248;2022-12-24T13:38:53;11.40;99.90
43671;DHT22;29267;50.906;7.248;2022-12-24T13:47:03;11.50;99.90
43671;DHT22;29267;50.906;7.248;2022-12-24T13:57:59;11.40;99.90
43671;DHT22;29267;50.906;7.248;2022-12-24T14:00:55;11.40;99.90
43671;DHT22;29267;50.906;7.248;2022-12-24T14:03:41;11.40;99.90
43671;DHT22;29267;50.906;7.248;2022-12-24T14:06:19;11.40;99.90
43671;DHT22;29267;50.906;7.248;2022-12-24T14:08:49;11.40;99.90
43671;DHT22;29267;50.906;7.248;2022-12-24T14:11:17;11.30;99.90
43671;DHT22;29267;50.906;7.248;2022-12-24T14:16:24;11.20;99.90
43671;DHT22;29267;50.906;7.248;2022-12-24T14:24:40;10.90;99.90
43671;DHT22;29267;50.906;7.248;2022-12-24T14:27:20;10.80;99.90
43671;DHT22;29267;50.906;7.248;2022-12-24T14:32:22;10.50;99.90
43671;DHT22;29267;50.906;7.248;2022-12-24T14:35:05;10.50;99.90
43671;DHT22;29267;50.906;7.248;2022-12-24T14:37:31;10.40;99.90
43671;DHT22;29267;50.906;7.248;2022-12-24T14:39:57;10.30;99.90
43671;DHT22;29267;50.906;7.248;2022-12-24T14:48:03;9.90;99.90
43671;DHT22;29267;50.906;7.248;2022-12-24T14:53:47;9.70;99.90
43671;DHT22;29267;50.906;7.248;2022-12-24T14:56:19;9.50;99.90
43671;DHT22;29267;50.906;7.248;2022-12-24T14:58:45;9.50;99.90
43671;DHT22;29267;50.906;7.248;2022-12-24T15:01:27;9.40;99.90
43671;DHT22;29267;50.906;7.248;2022-12-24T15:06:48;9.30;99.90
43671;DHT22;29267;50.906;7.248;2022-12-24T15:09:18;9.30;99.90
43671;DHT22;29267;50.906;7.248;2022-12-24T15:11:45;9.30;99.90
43671;DHT22;29267;50.906;7.248;2022-12-24T15:14:12;9.40;99.90
43671;DHT22;29267;50.906;7.248;2022-12-24T15:16:38;9.40;99.90
43671;DHT22;29267;50.906;7.248;2022-12-24T15:19:19;9.40;99.90
43671;DHT22;29267;50.906;7.248;2022-12-24T15:21:46;9.50;99.90
43671;DHT22;29267;50.906;7.248;2022-12-24T15:26:51;9.50;99.90
43671;DHT22;29267;50.906;7.248;2022-12-24T15:29:22;9.50;99.90
43671;DHT22;29267;50.906;7.248;2022-12-24T15:31:56;9.50;99.90
43671;DHT22;29267;50.906;7.248;2022-12-24T15:34:40;9.50;99.90
43671;DHT22;29267;50.906;7.248;2022-12-24T15:37:34;9.50;99.90
43671;DHT22;29267;50.906;7.248;2022-12-24T15:40:18;9.50;99.90
43671;DHT22;29267;50.906;7.248;2022-12-24T15:42:45;9.40;99.90
43671;DHT22;29267;50.906;7.248;2022-12-24T15:45:17;9.40;99.90
43671;DHT22;29267;50.906;7.248;2022-12-24T15:47:52;9.40;99.90
43671;DHT22;29267;50.906;7.248;2022-12-24T15:50:46;9.30;99.90
43671;DHT22;29267;50.906;7.248;2022-12-24T15:53:14;9.20;99.90
43671;DHT22;29267;50.906;7.248;2022-12-24T15:55:46;9.20;99.90
43671;DHT22;29267;50.906;7.248;2022-12-24T15:58:50;9.10;99.90
43671;DHT22;29267;50.906;7.248;2022-12-24T16:06:15;9.00;99.90
43671;DHT22;29267;50.906;7.248;2022-12-24T16:08:42;9.00;99.90
43671;DHT22;29267;50.906;7.248;2022-12-24T16:11:34;9.10;99.90
43671;DHT22;29267;50.906;7.248;2022-12-24T16:14:12;9.10;99.90
43671;DHT22;29267;50.906;7.248;2022-12-24T16:16:43;9.00;99.90
43671;DHT22;29267;50.906;7.248;2022-12-24T16:19:29;9.00;99.90
43671;DHT22;29267;50.906;7.248;2022-12-24T16:22:01;8.90;99.90
43671;DHT22;29267;50.906;7.248;2022-12-24T16:24:50;8.80;99.90
43671;DHT22;29267;50.906;7.248;2022-12-24T16:27:17;8.70;99.90
43671;DHT22;29267;50.906;7.248;2022-12-24T16:29:42;8.70;99.90
43671;DHT22;29267;50.906;7.248;2022-12-24T16:32:31;8.70;99.90
43671;DHT22;29267;50.906;7.248;2022-12-24T16:34:57;8.70;99.90
43671;DHT22;29267;50.906;7.248;2022-12-24T16:37:23;8.70;99.90
43671;DHT22;29267;50.906;7.248;2022-12-24T16:39:48;8.60;99.90
43671;DHT22;29267;50.906;7.248;2022-12-24T16:42:14;8.60;99.90
43671;DHT22;29267;50.906;7.248;2022-12-24T16:44:58;8.60;99.90
43671;DHT22;29267;50.906;7.248;2022-12-24T16:47:29;8.60;99.90
43671;DHT22;29267;50.906;7.248;2022-12-24T16:49:56;8.60;99.90
43671;DHT22;29267;50.906;7.248;2022-12-24T16:52:29;8.50;99.90
43671;DHT22;29267;50.906;7.248;2022-12-24T16:54:55;8.50;99.90
43671;DHT22;29267;50.906;7.248;2022-12-24T16:57:22;8.50;99.90
43671;DHT22;29267;50.906;7.248;2022-12-24T16:59:48;8.50;99.90
43671;DHT22;29267;50.906;7.248;2022-12-24T17:02:16;8.50;99.90
43671;DHT22;29267;50.906;7.248;2022-12-24T17:04:43;8.60;99.90
43671;DHT22;29267;50.906;7.248;2022-12-24T17:07:13;8.60;99.90
43671;DHT22;29267;50.906;7.248;2022-12-24T17:09:39;8.70;99.90
43671;DHT22;29267;50.906;7.248;2022-12-24T17:12:05;8.70;99.90
43671;DHT22;29267;50.906;7.248;2022-12-24T17:14:31;8.80;99.90
43671;DHT22;29267;50.906;7.248;2022-12-24T17:16:56;8.80;99.90
43671;DHT22;29267;50.906;7.248;2022-12-24T17:19:22;8.80;99.90
43671;DHT22;29267;50.906;7.248;2022-12-24T17:21:48;8.90;99.90
43671;DHT22;29267;50.906;7.248;2022-12-24T17:24:13;8.90;99.90
43671;DHT22;29267;50.906;7.248;2022-12-24T17:26:39;8.90;99.90
43671;DHT22;29267;50.906;7.248;2022-12-24T17:29:04;8.90;99.90
43671;DHT22;29267;50.906;7.248;2022-12-24T17:31:31;8.90;99.90
43671;DHT22;29267;50.906;7.248;2022-12-24T17:33:57;9.00;99.90
43671;DHT22;29267;50.906;7.248;2022-12-24T17:36:24;8.90;99.90
43671;DHT22;29267;50.906;7.248;2022-12-24T17:38:50;8.90;99.90
43671;DHT22;29267;50.906;7.248;2022-12-24T17:41:18;8.80;99.90
43671;DHT22;29267;50.906;7.248;2022-12-24T17:43:45;8.80;99.90
43671;DHT22;29267;50.906;7.248;2022-12-24T17:46:13;8.80;99.90
43671;DHT22;29267;50.906;7.248;2022-12-24T17:48:40;8.80;99.90
43671;DHT22;29267;50.906;7.248;2022-12-24T17:51:07;8.70;99.90
43671;DHT22;29267;50.906;7.248;2022-12-24T17:53:35;8.70;99.90
43671;DHT22;29267;50.906;7.248;2022-12-24T17:56:01;8.70;99.90
43671;DHT22;29267;50.906;7.248;2022-12-24T17:58:28;8.70;99.90
43671;DHT22;29267;50.906;7.248;2022-12-24T18:00:54;8.80;99.90
43671;DHT22;29267;50.906;7.248;2022-12-24T18:03:21;8.70;99.90
43671;DHT22;29267;50.906;7.248;2022-12-24T18:05:47;8.70;99.90
43671;DHT22;29267;50.906;7.248;2022-12-24T18:08:13;8.80;99.90
43671;DHT22;29267;50.906;7.248;2022-12-24T18:10:38;8.70;99.90
43671;DHT22;29267;50.906;7.248;2022-12-24T18:13:04;8.80;99.90